createdAt,value
2022-08-16T00:01:03.998Z,66.75
2022-08-16T00:03:37.655Z,65.63
2022-08-16T00:06:04.759Z,65.94
2022-08-16T00:08:37.043Z,65.81
2022-08-16T00:11:15.536Z,66.66
2022-08-16T00:13:53.861Z,66.20
2022-08-16T00:17:05.458Z,66.08
2022-08-16T00:19:23.976Z,65.33
2022-08-16T00:21:54.515Z,65.25
2022-08-16T00:24:32.760Z,65.38
2022-08-16T00:27:02.544Z,65.61
2022-08-16T00:29:30.173Z,65.04
2022-08-16T00:32:00.430Z,65.22
2022-08-16T00:34:44.373Z,65.09
2022-08-16T00:37:18.498Z,64.67
2022-08-16T00:39:57.319Z,64.46
2022-08-16T00:42:31.694Z,64.24
2022-08-16T00:45:25.042Z,64.19
2022-08-16T00:47:53.075Z,64.82
2022-08-16T00:50:36.002Z,65.84
2022-08-16T00:53:10.051Z,67.13
2022-08-16T00:55:41.961Z,67.44
2022-08-16T00:58:13.199Z,67.46
2022-08-16T01:00:45.721Z,67.25
2022-08-16T01:03:31.613Z,67.25
2022-08-16T01:06:39.654Z,67.37
2022-08-16T01:08:53.816Z,66.83
2022-08-16T01:11:24.375Z,66.94
2022-08-16T01:13:56.928Z,66.52
2022-08-16T01:16:28.428Z,67.18
2022-08-16T01:19:02.676Z,67.54
2022-08-16T01:21:36.185Z,67.93
2022-08-16T01:24:53.030Z,67.36
2022-08-16T01:27:28.457Z,67.41
2022-08-16T01:30:19.353Z,67.07
2022-08-16T01:33:02.859Z,67.79
2022-08-16T01:36:12.068Z,67.13
2022-08-16T01:38:48.979Z,66.83
2022-08-16T01:41:22.750Z,66.92
2022-08-16T01:43:54.070Z,67.22
2022-08-16T01:46:39.864Z,67.67
2022-08-16T01:49:43.060Z,67.35
2022-08-16T01:52:29.301Z,67.78
2022-08-16T01:55:22.547Z,67.61
2022-08-16T01:57:53.490Z,68.02
2022-08-16T02:00:28.961Z,67.96
2022-08-16T02:02:58.027Z,67.81
2022-08-16T02:05:24.831Z,68.01
2022-08-16T02:07:53.508Z,69.07
2022-08-16T02:10:21.033Z,69.71
2022-08-16T02:12:56.006Z,69.05
2022-08-16T02:15:30.386Z,69.40
2022-08-16T02:18:01.190Z,69.25
2022-08-16T02:20:32.231Z,69.85
2022-08-16T02:23:01.550Z,69.75
2022-08-16T02:25:50.830Z,70.13
2022-08-16T02:28:17.203Z,69.52
2022-08-16T02:30:50.625Z,70.84
2022-08-16T02:33:18.638Z,71.71
2022-08-16T02:35:53.935Z,72.26
2022-08-16T02:38:31.612Z,72.06
2022-08-16T02:41:02.130Z,71.90
2022-08-16T02:43:36.034Z,71.38
2022-08-16T02:46:08.042Z,71.65
2022-08-16T02:48:38.662Z,71.33
2022-08-16T02:51:11.430Z,71.40
2022-08-16T02:53:45.140Z,71.88
2022-08-16T02:56:15.650Z,72.17
2022-08-16T02:58:46.060Z,71.81
2022-08-16T03:01:24.693Z,72.61
2022-08-16T03:04:41.500Z,72.28
2022-08-16T03:06:43.176Z,72.09
2022-08-16T03:09:20.492Z,72.50
2022-08-16T03:11:52.082Z,72.81
2022-08-16T03:14:20.886Z,72.64
2022-08-16T03:16:59.617Z,72.52
2022-08-16T03:19:48.554Z,72.40
2022-08-16T03:22:28.125Z,73.38
2022-08-16T03:25:01.440Z,74.04
2022-08-16T03:27:32.401Z,73.18
2022-08-16T03:30:16.287Z,73.98
2022-08-16T03:32:51.398Z,73.34
2022-08-16T03:35:33.262Z,73.11
2022-08-16T03:38:34.200Z,73.12
2022-08-16T03:40:58.766Z,73.01
2022-08-16T03:43:51.359Z,72.94
2022-08-16T03:46:47.281Z,74.10
2022-08-16T03:49:05.056Z,74.67
2022-08-16T03:51:34.600Z,74.48
2022-08-16T03:54:12.115Z,74.54
2022-08-16T03:56:57.863Z,74.46
2022-08-16T03:59:30.262Z,74.73
2022-08-16T04:02:12.141Z,75.30
2022-08-16T04:04:50.584Z,74.89
2022-08-16T04:07:17.574Z,74.01
2022-08-16T04:09:47.152Z,73.96
2022-08-16T04:12:53.077Z,73.04
2022-08-16T04:15:02.879Z,72.34
2022-08-16T04:17:36.368Z,73.07
2022-08-16T04:20:23.858Z,73.02
2022-08-16T04:22:57.713Z,72.51
2022-08-16T04:25:27.155Z,72.79
2022-08-16T04:27:55.996Z,73.29
2022-08-16T04:30:31.920Z,73.28
2022-08-16T04:33:02.241Z,71.95
2022-08-16T04:35:34.539Z,71.59
2022-08-16T04:38:10.607Z,72.29
2022-08-16T04:40:48.014Z,71.13
2022-08-16T04:43:17.647Z,70.46
2022-08-16T04:45:45.712Z,70.43
2022-08-16T04:48:21.736Z,71.42
2022-08-16T04:50:56.830Z,70.58
2022-08-16T04:53:36.706Z,70.88
2022-08-16T04:56:11.170Z,70.29
2022-08-16T04:58:45.456Z,69.73
2022-08-16T05:01:15.361Z,68.90
2022-08-16T05:04:00.752Z,68.65
2022-08-16T05:06:42.310Z,68.04
2022-08-16T05:09:36.565Z,68.18
2022-08-16T05:12:06.458Z,67.37
2022-08-16T05:14:45.809Z,67.46
2022-08-16T05:17:19.834Z,67.60
2022-08-16T05:19:57.971Z,67.00
2022-08-16T05:22:33.057Z,66.21
2022-08-16T05:25:08.684Z,66.54
2022-08-16T05:27:42.921Z,65.97
2022-08-16T05:30:35.275Z,66.06
2022-08-16T05:33:01.436Z,65.62
2022-08-16T05:35:28.458Z,65.52
2022-08-16T05:38:30.899Z,64.98
2022-08-16T05:41:00.757Z,64.75
2022-08-16T05:43:43.405Z,64.83
2022-08-16T05:46:28.611Z,64.63
2022-08-16T05:49:05.913Z,64.86
2022-08-16T05:51:38.332Z,64.51
2022-08-16T05:54:08.367Z,64.91
2022-08-16T05:56:39.279Z,64.26
2022-08-16T05:59:07.505Z,63.92
2022-08-16T06:01:37.792Z,63.59
2022-08-16T06:04:12.729Z,63.06
2022-08-16T06:06:56.593Z,62.38
2022-08-16T06:09:43.068Z,62.29
2022-08-16T06:12:27.074Z,61.70
2022-08-16T06:15:07.649Z,61.80
2022-08-16T06:17:42.438Z,61.27
2022-08-16T06:20:23.438Z,60.18
2022-08-16T06:22:57.698Z,59.65
2022-08-16T06:25:36.336Z,58.87
2022-08-16T06:28:09.444Z,58.53
2022-08-16T06:30:44.057Z,57.49
2022-08-16T06:33:19.933Z,55.47
2022-08-16T06:35:55.151Z,55.02
2022-08-16T06:38:33.601Z,53.45
2022-08-16T06:41:14.047Z,54.43
2022-08-16T06:43:43.154Z,53.33
2022-08-16T06:46:31.771Z,52.87
2022-08-16T06:49:13.306Z,52.35
2022-08-16T06:51:46.358Z,53.62
2022-08-16T06:54:18.971Z,52.42
2022-08-16T06:56:46.086Z,51.64
2022-08-16T06:59:14.745Z,52.20
2022-08-16T07:01:54.443Z,50.84
2022-08-16T07:04:32.791Z,51.11
2022-08-16T07:07:19.427Z,50.88
2022-08-16T07:09:47.799Z,50.20
2022-08-16T07:12:19.477Z,49.71
2022-08-16T07:14:49.058Z,50.04
2022-08-16T07:17:19.434Z,50.52
2022-08-16T07:20:03.083Z,49.80
2022-08-16T07:22:52.910Z,47.47
2022-08-16T07:25:34.941Z,47.21
2022-08-16T07:28:09.335Z,47.39
2022-08-16T07:30:46.020Z,46.36
2022-08-16T07:33:52.629Z,45.95
2022-08-16T07:36:27.218Z,45.76
2022-08-16T07:38:56.492Z,46.20
2022-08-16T07:41:24.652Z,46.62
2022-08-16T07:43:59.882Z,46.92
2022-08-16T07:46:39.671Z,46.51
2022-08-16T07:49:21.956Z,46.10
2022-08-16T07:51:48.891Z,46.41
2022-08-16T07:54:32.259Z,46.35
2022-08-16T07:57:08.406Z,46.49
2022-08-16T07:59:45.679Z,45.55
2022-08-16T08:02:19.656Z,44.54
2022-08-16T08:04:51.861Z,44.20
2022-08-16T08:07:19.152Z,44.14
2022-08-16T08:09:48.877Z,43.70
2022-08-16T08:12:32.286Z,43.11
2022-08-16T08:15:09.594Z,43.45
2022-08-16T08:17:42.624Z,43.22
2022-08-16T08:20:23.909Z,42.70
2022-08-16T08:23:00.714Z,42.80
2022-08-16T08:25:53.722Z,42.86
2022-08-16T08:28:21.189Z,42.27
2022-08-16T08:31:01.573Z,42.09
2022-08-16T08:33:33.928Z,43.05
2022-08-16T08:36:05.193Z,42.38
2022-08-16T08:38:45.332Z,42.06
2022-08-16T08:41:18.275Z,43.77
2022-08-16T08:43:50.637Z,42.80
2022-08-16T08:46:21.224Z,41.92
2022-08-16T08:49:02.008Z,42.26
2022-08-16T08:51:38.342Z,41.92
2022-08-16T08:54:10.853Z,41.52
2022-08-16T08:56:45.280Z,41.72
2022-08-16T08:59:33.788Z,41.11
2022-08-16T09:02:09.238Z,41.24
2022-08-16T09:04:51.708Z,40.91
2022-08-16T09:07:23.638Z,41.22
2022-08-16T09:10:06.145Z,41.72
2022-08-16T09:12:37.257Z,40.46
2022-08-16T09:15:10.238Z,41.00
2022-08-16T09:17:51.609Z,41.65
2022-08-16T09:20:23.765Z,41.53
2022-08-16T09:22:54.415Z,42.18
2022-08-16T09:25:33.790Z,41.83
2022-08-16T09:28:09.427Z,40.51
2022-08-16T09:30:45.031Z,40.87
2022-08-16T09:33:18.390Z,41.22
2022-08-16T09:35:53.839Z,40.51
2022-08-16T09:38:31.791Z,40.64
2022-08-16T09:41:01.158Z,40.74
2022-08-16T09:43:58.570Z,40.98
2022-08-16T09:46:48.661Z,41.41
2022-08-16T09:49:03.564Z,40.99
2022-08-16T09:51:36.933Z,41.40
2022-08-16T09:54:05.513Z,42.09
2022-08-16T09:56:35.427Z,41.94
2022-08-16T09:59:08.193Z,42.03
2022-08-16T10:01:38.533Z,42.01
2022-08-16T10:04:30.244Z,42.08
2022-08-16T10:09:44.725Z,42.01
2022-08-16T10:12:31.320Z,41.83
2022-08-16T10:15:00.160Z,42.70
2022-08-16T10:17:27.863Z,40.64
2022-08-16T10:19:55.361Z,40.87
2022-08-16T10:22:23.265Z,41.38
2022-08-16T10:24:56.009Z,41.08
2022-08-16T10:27:46.977Z,40.06
2022-08-16T10:30:25.257Z,39.58
2022-08-16T10:32:55.506Z,40.42
2022-08-16T10:35:22.918Z,39.00
2022-08-16T10:37:52.387Z,39.35
2022-08-16T10:40:29.222Z,39.52
2022-08-16T10:43:00.327Z,39.54
2022-08-16T10:45:29.227Z,38.21
2022-08-16T10:48:23.932Z,37.65
2022-08-16T10:50:58.088Z,38.99
2022-08-16T10:53:32.967Z,38.86
2022-08-16T10:56:52.014Z,38.11
2022-08-16T10:58:53.359Z,38.30
2022-08-16T11:01:43.659Z,37.93
2022-08-16T11:05:04.931Z,37.49
2022-08-16T11:07:43.328Z,37.17
2022-08-16T11:09:43.203Z,36.38
2022-08-16T11:12:13.988Z,37.74
2022-08-16T11:15:11.336Z,37.84
2022-08-16T11:17:28.429Z,36.80
2022-08-16T11:20:36.691Z,37.00
2022-08-16T11:22:48.885Z,35.97
2022-08-16T11:28:10.736Z,36.01
2022-08-16T11:30:39.349Z,36.48
2022-08-16T11:33:07.945Z,36.87
2022-08-16T11:35:43.695Z,35.42
2022-08-16T11:38:47.266Z,34.60
2022-08-16T11:41:02.013Z,34.72
2022-08-16T11:43:31.781Z,33.85
2022-08-16T11:46:34.173Z,34.03
2022-08-16T11:48:50.922Z,33.79
2022-08-16T11:51:17.747Z,34.47
2022-08-16T11:53:45.077Z,34.14
2022-08-16T11:56:11.950Z,33.51
2022-08-16T11:58:41.836Z,34.01
2022-08-16T12:01:10.778Z,33.11
2022-08-16T12:03:37.508Z,34.00
2022-08-16T12:06:25.181Z,33.98
2022-08-16T12:09:01.758Z,33.92
2022-08-16T12:11:31.705Z,33.96
2022-08-16T12:14:00.843Z,33.94
2022-08-16T12:16:31.268Z,34.86
2022-08-16T12:19:02.315Z,34.50
2022-08-16T12:21:35.866Z,34.34
2022-08-16T12:24:18.238Z,34.59
2022-08-16T12:26:45.127Z,34.15
2022-08-16T12:29:11.977Z,33.38
2022-08-16T12:31:38.952Z,34.07
2022-08-16T12:34:28.663Z,34.67
2022-08-16T12:36:56.279Z,34.87
2022-08-16T12:39:23.483Z,33.40
2022-08-16T12:41:56.384Z,34.08
2022-08-16T12:44:26.610Z,33.08
2022-08-16T12:47:16.891Z,33.30
2022-08-16T12:49:43.637Z,34.05
2022-08-16T12:52:33.205Z,33.25
2022-08-16T12:54:59.606Z,33.85
2022-08-16T12:57:36.584Z,33.39
2022-08-16T13:00:07.427Z,33.79
2022-08-16T13:02:36.447Z,33.32
2022-08-16T13:05:07.087Z,33.39
2022-08-16T13:07:37.599Z,33.46
2022-08-16T13:10:21.147Z,33.95
2022-08-16T13:13:01.562Z,33.99
2022-08-16T13:15:29.475Z,32.70
2022-08-16T13:17:57.883Z,32.54
2022-08-16T13:20:29.116Z,32.23
2022-08-16T13:23:06.422Z,32.82
2022-08-16T13:25:35.892Z,32.07
2022-08-16T13:28:04.593Z,31.42
2022-08-16T13:30:36.121Z,30.85
2022-08-16T13:33:10.867Z,30.94
2022-08-16T13:35:43.021Z,31.25
2022-08-16T13:38:24.495Z,31.32
2022-08-16T13:40:55.993Z,32.41
2022-08-16T13:43:25.003Z,32.40
2022-08-16T13:45:53.319Z,32.27
2022-08-16T13:48:25.014Z,31.66
2022-08-16T13:50:56.338Z,31.20
2022-08-16T13:53:25.589Z,31.06
2022-08-16T13:55:58.684Z,31.01
2022-08-16T13:58:35.519Z,30.59
2022-08-16T14:01:10.031Z,31.41
2022-08-16T14:03:39.372Z,30.99
2022-08-16T14:06:07.115Z,31.67
2022-08-16T14:08:42.459Z,32.31
2022-08-16T14:11:12.721Z,32.11
2022-08-16T14:13:44.304Z,33.11
2022-08-16T14:16:24.213Z,33.29
2022-08-16T14:18:57.075Z,33.28
2022-08-16T14:21:24.139Z,33.78
2022-08-16T14:23:54.529Z,33.35
2022-08-16T14:26:24.875Z,32.44
2022-08-16T14:28:52.563Z,32.89
2022-08-16T14:31:21.632Z,33.71
2022-08-16T14:33:50.512Z,32.48
2022-08-16T14:36:18.758Z,32.85
2022-08-16T14:38:57.893Z,33.01
2022-08-16T14:41:25.378Z,32.51
2022-08-16T14:43:52.125Z,32.18
2022-08-16T14:46:19.008Z,32.77
2022-08-16T14:48:46.428Z,32.90
2022-08-16T14:51:15.823Z,32.45
2022-08-16T14:53:45.353Z,32.61
2022-08-16T14:56:17.300Z,31.84
2022-08-16T14:58:59.501Z,32.92
2022-08-16T15:01:57.477Z,32.73
2022-08-16T15:04:13.790Z,34.33
2022-08-16T15:07:00.469Z,34.84
2022-08-16T15:09:27.430Z,35.53
2022-08-16T15:11:54.471Z,36.83
2022-08-16T15:14:21.145Z,37.11
2022-08-16T15:16:49.307Z,37.06
2022-08-16T15:19:16.136Z,36.94
2022-08-16T15:21:43.916Z,37.09
2022-08-16T15:24:16.829Z,36.90
2022-08-16T15:26:49.459Z,36.75
2022-08-16T15:29:16.352Z,36.10
2022-08-16T15:31:44.477Z,36.41
2022-08-16T15:34:22.119Z,37.03
2022-08-16T15:36:53.931Z,36.73
2022-08-16T15:39:30.315Z,37.12
2022-08-16T15:42:11.036Z,37.32
2022-08-16T15:44:44.748Z,37.94
2022-08-16T15:47:22.341Z,38.35
2022-08-16T15:49:55.664Z,39.04
2022-08-16T15:52:30.395Z,39.15
2022-08-16T15:55:13.145Z,39.71
2022-08-16T15:57:51.362Z,39.22
2022-08-16T16:00:20.846Z,38.44
2022-08-16T16:02:49.512Z,39.22
2022-08-16T16:05:17.139Z,39.28
2022-08-16T16:07:55.813Z,38.63
2022-08-16T16:10:28.368Z,38.68
2022-08-16T16:12:58.147Z,39.44
2022-08-16T16:15:30.000Z,39.59
2022-08-16T16:17:57.543Z,39.62
2022-08-16T16:20:27.043Z,39.35
2022-08-16T16:23:01.620Z,39.73
2022-08-16T16:25:29.963Z,40.85
2022-08-16T16:27:59.633Z,40.34
2022-08-16T16:30:42.957Z,40.14
2022-08-16T16:33:21.039Z,39.55
2022-08-16T16:35:55.436Z,40.00
2022-08-16T16:38:28.997Z,40.05
2022-08-16T16:41:08.949Z,40.13
2022-08-16T16:43:42.375Z,39.57
2022-08-16T16:46:43.126Z,39.19
2022-08-16T16:48:58.076Z,38.97
2022-08-16T16:51:28.006Z,38.15
2022-08-16T16:53:56.913Z,38.44
2022-08-16T16:56:31.402Z,38.46
2022-08-16T16:59:09.391Z,39.40
2022-08-16T17:01:57.015Z,39.42
2022-08-16T17:04:31.556Z,39.76
2022-08-16T17:06:59.812Z,39.73
2022-08-16T17:09:26.516Z,39.91
2022-08-16T17:11:54.936Z,40.14
2022-08-16T17:14:33.539Z,41.08
2022-08-16T17:17:08.609Z,41.14
2022-08-16T17:19:40.131Z,41.73
2022-08-16T17:22:14.697Z,41.49
2022-08-16T17:24:44.918Z,41.81
2022-08-16T17:27:18.110Z,42.02
2022-08-16T17:29:47.680Z,43.77
2022-08-16T17:32:46.484Z,44.04
2022-08-16T17:35:17.851Z,45.55
2022-08-16T17:37:51.435Z,46.96
2022-08-16T17:40:45.974Z,48.03
2022-08-16T17:43:14.961Z,46.69
2022-08-16T17:45:42.442Z,46.50
2022-08-16T17:48:09.739Z,46.39
2022-08-16T17:50:37.502Z,45.38
2022-08-16T17:53:06.081Z,44.59
2022-08-16T17:55:36.160Z,44.46
2022-08-16T17:58:19.799Z,44.53
2022-08-16T18:00:51.734Z,44.43
2022-08-16T18:04:02.865Z,44.10
2022-08-16T18:06:12.701Z,44.29
2022-08-16T18:08:40.672Z,44.66
2022-08-16T18:11:10.484Z,44.50
2022-08-16T18:13:42.935Z,45.38
2022-08-16T18:16:10.342Z,46.69
2022-08-16T18:18:37.108Z,46.99
2022-08-16T18:21:22.486Z,47.39
2022-08-16T18:23:49.505Z,47.72
2022-08-16T18:26:16.219Z,47.81
2022-08-16T18:28:43.069Z,47.46
2022-08-16T18:31:10.361Z,48.03
2022-08-16T18:33:43.303Z,47.93
2022-08-16T18:36:20.927Z,46.87
2022-08-16T18:38:49.841Z,46.48
2022-08-16T18:41:17.803Z,46.40
2022-08-16T18:44:23.513Z,46.36
2022-08-16T18:46:31.321Z,46.45
2022-08-16T18:48:58.038Z,46.61
2022-08-16T18:51:25.737Z,46.75
2022-08-16T18:53:53.146Z,47.61
2022-08-16T18:56:19.977Z,47.57
2022-08-16T18:58:46.765Z,47.47
2022-08-16T19:01:13.711Z,48.15
2022-08-16T19:03:40.681Z,48.71
2022-08-16T19:06:13.813Z,48.75
2022-08-16T19:08:43.687Z,48.79
2022-08-16T19:11:15.106Z,48.77
2022-08-16T19:13:44.380Z,48.49
2022-08-16T19:16:11.777Z,48.05
2022-08-16T19:18:38.576Z,48.00
2022-08-16T19:21:06.374Z,47.83
2022-08-16T19:23:35.658Z,48.02
2022-08-16T19:26:26.354Z,48.83
2022-08-16T19:28:59.059Z,48.61
2022-08-16T19:31:30.351Z,49.09
2022-08-16T19:33:57.566Z,49.64
2022-08-16T19:36:32.402Z,49.60
2022-08-16T19:39:06.859Z,49.92
2022-08-16T19:41:39.036Z,50.59
2022-08-16T19:44:06.808Z,50.42
2022-08-16T19:46:34.009Z,49.91
2022-08-16T19:49:01.025Z,50.11
2022-08-16T19:51:28.021Z,50.23
2022-08-16T19:53:54.868Z,50.73
2022-08-16T19:56:25.603Z,51.08
2022-08-16T19:59:17.638Z,51.19
2022-08-16T20:01:42.313Z,51.64
2022-08-16T20:04:12.699Z,52.41
2022-08-16T20:06:40.769Z,53.24
2022-08-16T20:09:07.641Z,53.14
2022-08-16T20:11:35.268Z,53.62
2022-08-16T20:14:02.652Z,53.44
2022-08-16T20:16:29.982Z,53.54
2022-08-16T20:18:56.749Z,53.29
2022-08-16T20:21:24.307Z,53.25
2022-08-16T20:23:51.472Z,53.51
2022-08-16T20:26:18.919Z,53.69
2022-08-16T20:28:54.331Z,53.71
2022-08-16T20:31:25.430Z,53.54
2022-08-16T20:33:53.326Z,53.66
2022-08-16T20:36:20.288Z,53.66
2022-08-16T20:38:47.837Z,53.54
2022-08-16T20:41:16.758Z,53.87
2022-08-16T20:43:43.765Z,53.90
2022-08-16T20:46:12.631Z,54.53
2022-08-16T20:48:39.809Z,54.35
2022-08-16T20:51:10.394Z,54.70
2022-08-16T20:53:42.366Z,54.35
2022-08-16T20:56:11.095Z,54.54
2022-08-16T20:58:38.452Z,54.03
2022-08-16T21:01:07.339Z,54.41
2022-08-16T21:03:34.702Z,54.59
2022-08-16T21:06:02.273Z,55.21
2022-08-16T21:08:53.109Z,54.58
2022-08-16T21:11:17.272Z,55.22
2022-08-16T21:13:44.070Z,55.20
2022-08-16T21:16:10.816Z,55.06
2022-08-16T21:18:37.686Z,55.00
2022-08-16T21:21:04.580Z,54.86
2022-08-16T21:23:31.255Z,54.59
2022-08-16T21:25:59.783Z,54.80
2022-08-16T21:28:41.553Z,55.16
2022-08-16T21:31:15.075Z,55.19
2022-08-16T21:33:43.222Z,55.60
2022-08-16T21:36:11.349Z,55.81
2022-08-16T21:38:38.999Z,56.21
2022-08-16T21:41:08.021Z,55.85
2022-08-16T21:43:35.260Z,56.43
2022-08-16T21:46:03.705Z,56.65
2022-08-16T21:48:33.944Z,56.49
2022-08-16T21:51:04.569Z,56.51
2022-08-16T21:53:31.570Z,56.80
2022-08-16T21:55:59.266Z,56.99
2022-08-16T21:58:26.133Z,57.14
2022-08-16T22:00:53.269Z,57.26
2022-08-16T22:03:21.158Z,57.22
2022-08-16T22:06:11.816Z,57.15
2022-08-16T22:08:47.830Z,57.39
2022-08-16T22:11:22.540Z,57.55
2022-08-16T22:13:58.322Z,57.67
2022-08-16T22:16:32.503Z,57.82
2022-08-16T22:18:59.782Z,58.09
2022-08-16T22:21:26.888Z,57.77
2022-08-16T22:23:56.734Z,58.38
2022-08-16T22:26:34.431Z,58.03
2022-08-16T22:29:06.723Z,58.12
2022-08-16T22:31:33.932Z,58.56
2022-08-16T22:34:01.912Z,58.22
2022-08-16T22:36:30.345Z,58.33
2022-08-16T22:38:59.128Z,58.68
2022-08-16T22:41:28.721Z,58.37
2022-08-16T22:43:56.328Z,57.92
2022-08-16T22:46:23.222Z,58.32
2022-08-16T22:48:50.902Z,58.37
2022-08-16T22:51:23.362Z,58.54
2022-08-16T22:53:50.667Z,58.88
2022-08-16T22:56:17.790Z,58.97
2022-08-16T22:58:45.784Z,58.59
2022-08-16T23:01:13.387Z,58.43
2022-08-16T23:03:40.920Z,58.70
2022-08-16T23:06:09.027Z,58.59
2022-08-16T23:08:40.528Z,58.65
2022-08-16T23:11:10.456Z,58.65
2022-08-16T23:13:37.415Z,58.94
2022-08-16T23:16:10.732Z,59.10
2022-08-16T23:18:38.973Z,59.13
2022-08-16T23:21:09.176Z,59.69
2022-08-16T23:23:37.447Z,59.83
2022-08-16T23:26:44.926Z,59.84
2022-08-16T23:28:52.360Z,60.23
2022-08-16T23:31:22.039Z,60.75
2022-08-16T23:33:48.805Z,60.55
2022-08-16T23:36:15.753Z,60.33
2022-08-16T23:38:43.009Z,60.66
2022-08-16T23:41:12.053Z,61.11
2022-08-16T23:43:43.170Z,60.98
2022-08-16T23:46:14.969Z,61.17
2022-08-16T23:49:45.137Z,61.72
2022-08-16T23:51:29.394Z,61.88
2022-08-16T23:53:56.247Z,61.66
2022-08-16T23:56:23.055Z,61.97
2022-08-16T23:58:52.601Z,61.97
